Time;durP1;ratioP1;P1;durP2;ratioP2;P2;SDS_P1;SDS_P2;PMS_P1;PMS_P2;Temp;Humidity;BMP_temperature;BMP_pressure;BME280_temperature;BME280_humidity;BME280_pressure;Samples;Min_cycle;Max_cycle;Signal;HPM_P1;HPM_P2
2021/05/12 00:01:41;;;;;;;36.30;21.55;;;;;;;;;;5023321;28;20048;-64
2021/05/12 00:04:07;;;;;;;37.67;21.20;;;;;;;;;;5030791;28;20018;-64
2021/05/12 00:06:32;;;;;;;48.72;22.65;;;;;;;;;;5025312;28;20044;-65
2021/05/12 00:08:57;;;;;;;37.00;21.93;;;;;;;;;;5027859;28;20099;-64
2021/05/12 00:11:22;;;;;;;40.13;22.55;;;;;;;;;;5047259;28;20628;-64
2021/05/12 00:13:47;;;;;;;40.43;21.40;;;;;;;;;;5023948;28;20020;-65
2021/05/12 00:16:13;;;;;;;39.92;22.10;;;;;;;;;;5029393;28;20331;-64
2021/05/12 00:18:41;;;;;;;38.85;22.55;;;;;;;;;;5029354;28;20029;-64
2021/05/12 00:21:10;;;;;;;36.03;21.20;;;;;;;;;;5019288;28;20017;-64
2021/05/12 00:23:44;;;;;;;42.75;21.52;;;;;;;;;;5035578;23;20041;-65
2021/05/12 00:26:09;;;;;;;38.85;21.67;;;;;;;;;;5011605;28;20383;-64
2021/05/12 00:28:35;;;;;;;36.90;20.10;;;;;;;;;;5011662;28;20029;-64
2021/05/12 00:31:00;;;;;;;39.78;20.92;;;;;;;;;;5011645;28;20414;-64
2021/05/12 00:33:25;;;;;;;42.83;20.75;;;;;;;;;;5010986;28;20037;-64
2021/05/12 00:35:50;;;;;;;41.10;20.07;;;;;;;;;;5011087;28;20112;-64
2021/05/12 00:38:15;;;;;;;41.87;17.63;;;;;;;;;;5010724;28;20493;-63
2021/05/12 00:40:41;;;;;;;39.07;17.93;;;;;;;;;;5011463;28;20756;-63
2021/05/12 00:43:06;;;;;;;35.00;15.60;;;;;;;;;;5011474;28;20312;-64
2021/05/12 00:45:31;;;;;;;38.13;17.27;;;;;;;;;;5011085;28;20021;-63
2021/05/12 00:47:56;;;;;;;30.95;15.50;;;;;;;;;;5011177;28;20292;-64
2021/05/12 00:50:22;;;;;;;27.75;16.75;;;;;;;;;;5011479;28;20064;-63
2021/05/12 00:52:48;;;;;;;35.13;18.83;;;;;;;;;;5011309;28;20481;-62
2021/05/12 00:55:13;;;;;;;32.80;17.23;;;;;;;;;;5011971;28;20040;-64
2021/05/12 00:57:38;;;;;;;37.17;17.17;;;;;;;;;;5011087;28;20410;-62
2021/05/12 01:00:05;;;;;;;29.70;16.95;;;;;;;;;;5011523;28;20371;-63
2021/05/12 01:02:32;;;;;;;29.65;17.50;;;;;;;;;;5011725;28;20352;-62
2021/05/12 01:04:58;;;;;;;31.40;17.83;;;;;;;;;;5011730;28;20311;-62
2021/05/12 01:07:23;;;;;;;32.70;16.80;;;;;;;;;;5011100;28;20028;-63
2021/05/12 01:09:48;;;;;;;30.77;18.43;;;;;;;;;;5010989;28;20028;-63
2021/05/12 01:12:13;;;;;;;32.40;17.15;;;;;;;;;;5011179;28;20274;-63
2021/05/12 01:14:38;;;;;;;37.20;18.73;;;;;;;;;;5010513;28;20095;-63
2021/05/12 01:17:04;;;;;;;38.95;17.90;;;;;;;;;;5010295;28;20029;-64
2021/05/12 01:19:29;;;;;;;33.75;18.83;;;;;;;;;;5010554;28;20048;-64
2021/05/12 01:21:55;;;;;;;39.05;19.05;;;;;;;;;;5010653;28;20014;-62
2021/05/12 01:24:20;;;;;;;29.73;17.77;;;;;;;;;;5015357;28;20026;-62
2021/05/12 01:26:45;;;;;;;36.60;19.08;;;;;;;;;;5011491;28;20084;-63
2021/05/12 01:29:10;;;;;;;35.67;18.50;;;;;;;;;;4993052;28;20016;-63
2021/05/12 01:31:36;;;;;;;35.77;19.60;;;;;;;;;;5010336;28;20327;-64
2021/05/12 01:34:02;;;;;;;38.67;19.77;;;;;;;;;;5011357;28;20292;-63
2021/05/12 01:36:30;;;;;;;34.25;19.25;;;;;;;;;;5010379;28;20291;-64
2021/05/12 01:38:55;;;;;;;42.15;19.85;;;;;;;;;;5011128;28;20080;-63
2021/05/12 01:41:22;;;;;;;34.50;18.55;;;;;;;;;;5010760;28;20023;-64
2021/05/12 01:43:48;;;;;;;33.20;19.98;;;;;;;;;;5008253;28;20042;-64
2021/05/12 01:46:13;;;;;;;32.28;18.65;;;;;;;;;;5010541;28;20026;-62
2021/05/12 01:48:39;;;;;;;45.15;19.60;;;;;;;;;;5010481;28;20018;-64
2021/05/12 01:51:04;;;;;;;42.17;19.75;;;;;;;;;;5011049;28;20026;-64
2021/05/12 01:53:30;;;;;;;34.90;18.30;;;;;;;;;;5010462;28;20037;-64
2021/05/12 01:55:55;;;;;;;33.53;18.40;;;;;;;;;;5009749;28;20478;-64
2021/05/12 01:58:21;;;;;;;31.98;19.30;;;;;;;;;;5039399;22;20087;-88
2021/05/12 02:00:50;;;;;;;32.85;18.67;;;;;;;;;;5028470;28;20071;-88
2021/05/12 02:03:19;;;;;;;36.42;19.30;;;;;;;;;;5029886;28;20052;-88
2021/05/12 02:05:45;;;;;;;33.60;18.20;;;;;;;;;;5029340;28;20328;-88
2021/05/12 02:08:17;;;;;;;35.70;17.30;;;;;;;;;;5003127;28;20140;-88
2021/05/12 02:10:44;;;;;;;28.05;16.92;;;;;;;;;;5003444;28;20025;-87
2021/05/12 02:13:09;;;;;;;35.47;20.48;;;;;;;;;;5010530;28;20041;-88
2021/05/12 02:15:34;;;;;;;32.80;16.58;;;;;;;;;;5006769;28;20025;-88
2021/05/12 02:18:00;;;;;;;38.00;18.65;;;;;;;;;;5021695;28;20014;-88
2021/05/12 02:20:28;;;;;;;31.75;17.58;;;;;;;;;;5004182;28;20030;-88
2021/05/12 02:22:53;;;;;;;32.17;17.85;;;;;;;;;;5005860;28;20116;-88
2021/05/12 02:25:19;;;;;;;33.28;18.50;;;;;;;;;;5013828;28;20041;-87
2021/05/12 02:27:44;;;;;;;37.00;17.70;;;;;;;;;;5025711;28;20028;-88
2021/05/12 02:30:10;;;;;;;30.98;17.13;;;;;;;;;;5010678;28;20017;-87
2021/05/12 02:32:36;;;;;;;33.88;17.33;;;;;;;;;;5029515;28;20052;-87
2021/05/12 02:35:01;;;;;;;36.50;17.80;;;;;;;;;;5028382;28;20026;-88
2021/05/12 02:37:29;;;;;;;36.47;19.10;;;;;;;;;;5009805;28;20366;-88
2021/05/12 02:39:55;;;;;;;40.17;19.98;;;;;;;;;;5008392;28;20101;-88
2021/05/12 02:42:21;;;;;;;33.95;17.92;;;;;;;;;;5011641;28;20195;-88
2021/05/12 02:44:46;;;;;;;40.65;18.40;;;;;;;;;;5029601;28;20024;-88
2021/05/12 02:47:11;;;;;;;37.05;18.50;;;;;;;;;;5010925;28;20667;-88
2021/05/12 02:49:40;;;;;;;35.38;18.85;;;;;;;;;;5011574;28;20033;-87
2021/05/12 02:52:06;;;;;;;46.00;18.70;;;;;;;;;;5013500;28;20110;-87
2021/05/12 02:54:31;;;;;;;31.55;18.70;;;;;;;;;;5013010;28;20036;-88
2021/05/12 02:56:57;;;;;;;32.15;18.15;;;;;;;;;;5022135;28;20029;-88
2021/05/12 03:00:00;;;;;;;;;;;;;;;;;;;;;
2021/05/12 03:02:46;;;;;;;35.45;16.58;;;;;;;;;;4928023;28;20039;-87
2021/05/12 03:05:43;;;;;;;30.25;16.92;;;;;;;;;;5034627;28;20483;-87
2021/05/12 03:08:09;;;;;;;37.08;17.45;;;;;;;;;;5032855;23;20433;-63
2021/05/12 03:10:34;;;;;;;43.55;17.83;;;;;;;;;;5031060;28;20109;-63
2021/05/12 03:13:00;;;;;;;36.58;18.30;;;;;;;;;;5034186;28;20021;-62
2021/05/12 03:15:26;;;;;;;33.65;16.90;;;;;;;;;;5026516;28;20018;-62
2021/05/12 03:17:52;;;;;;;33.60;16.90;;;;;;;;;;5030440;28;20017;-63
2021/05/12 03:20:18;;;;;;;31.25;17.60;;;;;;;;;;5032012;28;20024;-63
2021/05/12 03:22:44;;;;;;;42.65;18.23;;;;;;;;;;5025891;28;20021;-64
2021/05/12 03:25:10;;;;;;;29.05;16.25;;;;;;;;;;5028059;28;20469;-63
2021/05/12 03:27:35;;;;;;;44.22;16.90;;;;;;;;;;5029340;28;20440;-63
2021/05/12 03:30:00;;;;;;;36.97;17.40;;;;;;;;;;5030939;28;20102;-62
2021/05/12 03:32:25;;;;;;;33.38;16.73;;;;;;;;;;5029640;28;20283;-63
2021/05/12 03:34:51;;;;;;;31.30;16.08;;;;;;;;;;5029104;28;20025;-63
2021/05/12 03:37:16;;;;;;;37.33;16.77;;;;;;;;;;5028587;28;20409;-64
2021/05/12 03:39:41;;;;;;;29.48;16.60;;;;;;;;;;5029489;28;20482;-64
2021/05/12 03:42:06;;;;;;;24.10;15.13;;;;;;;;;;5030180;28;20503;-63
2021/05/12 03:44:32;;;;;;;32.65;16.63;;;;;;;;;;5029348;28;20529;-63
2021/05/12 03:46:57;;;;;;;45.25;17.70;;;;;;;;;;5026432;28;20022;-63
2021/05/12 03:49:22;;;;;;;35.70;15.87;;;;;;;;;;5032466;28;20037;-64
2021/05/12 03:51:47;;;;;;;29.48;14.90;;;;;;;;;;5031906;28;20740;-63
2021/05/12 03:54:12;;;;;;;35.42;17.15;;;;;;;;;;5032585;28;20025;-63
2021/05/12 03:56:38;;;;;;;38.55;19.50;;;;;;;;;;5031627;28;20048;-62
2021/05/12 03:59:03;;;;;;;34.00;18.00;;;;;;;;;;5014548;28;20407;-63
2021/05/12 04:01:28;;;;;;;40.47;20.63;;;;;;;;;;5032205;28;20051;-63
2021/05/12 04:03:54;;;;;;;39.50;20.85;;;;;;;;;;5032974;28;20077;-62
2021/05/12 04:06:19;;;;;;;40.17;20.80;;;;;;;;;;5030397;28;20335;-64
2021/05/12 04:08:44;;;;;;;35.72;20.15;;;;;;;;;;5032195;28;20044;-62
2021/05/12 04:11:09;;;;;;;37.50;20.87;;;;;;;;;;5031922;28;20317;-63
2021/05/12 04:13:36;;;;;;;39.17;20.23;;;;;;;;;;5031508;28;20268;-62
2021/05/12 04:16:01;;;;;;;38.65;21.50;;;;;;;;;;5030800;28;20096;-63
2021/05/12 04:18:27;;;;;;;39.35;21.25;;;;;;;;;;5030984;28;20477;-63
2021/05/12 04:20:52;;;;;;;41.22;22.88;;;;;;;;;;5032077;28;20033;-63
2021/05/12 04:23:18;;;;;;;38.60;21.10;;;;;;;;;;5031805;28;20010;-63
2021/05/12 04:25:43;;;;;;;33.35;19.90;;;;;;;;;;5031677;28;20021;-63
2021/05/12 04:28:08;;;;;;;37.80;20.00;;;;;;;;;;5031489;28;20075;-63
2021/05/12 04:30:33;;;;;;;35.85;20.00;;;;;;;;;;5030700;28;20268;-63
2021/05/12 04:32:59;;;;;;;36.58;20.13;;;;;;;;;;5030236;28;20473;-63
2021/05/12 04:35:25;;;;;;;39.17;20.48;;;;;;;;;;5030829;28;20104;-63
2021/05/12 04:37:51;;;;;;;35.13;20.55;;;;;;;;;;5031316;28;20025;-62
2021/05/12 04:40:16;;;;;;;36.22;19.55;;;;;;;;;;5031329;28;20276;-63
2021/05/12 04:42:41;;;;;;;36.92;21.33;;;;;;;;;;5031668;28;20568;-63
2021/05/12 04:45:09;;;;;;;36.57;21.17;;;;;;;;;;5031434;28;20017;-63
2021/05/12 04:47:34;;;;;;;36.03;20.20;;;;;;;;;;5030272;28;20267;-63
2021/05/12 04:49:59;;;;;;;37.75;22.25;;;;;;;;;;5031845;28;20171;-62
2021/05/12 04:52:24;;;;;;;38.72;21.05;;;;;;;;;;5030996;28;20646;-64
2021/05/12 04:54:50;;;;;;;37.97;21.65;;;;;;;;;;5030737;28;20448;-63
2021/05/12 04:57:15;;;;;;;38.25;22.38;;;;;;;;;;5027296;28;20029;-63
2021/05/12 04:59:40;;;;;;;43.92;22.67;;;;;;;;;;5023541;28;20030;-62
2021/05/12 05:02:08;;;;;;;39.97;20.93;;;;;;;;;;5027441;28;20021;-63
2021/05/12 05:04:35;;;;;;;46.20;24.33;;;;;;;;;;5024859;28;20302;-63
2021/05/12 05:07:01;;;;;;;38.75;22.92;;;;;;;;;;5025960;28;20033;-63
2021/05/12 05:09:26;;;;;;;42.42;21.55;;;;;;;;;;5027567;28;20117;-63
2021/05/12 05:11:51;;;;;;;37.80;21.50;;;;;;;;;;5018122;28;20029;-62
2021/05/12 05:14:16;;;;;;;40.30;21.02;;;;;;;;;;5027526;28;20049;-63
2021/05/12 05:16:42;;;;;;;37.40;20.17;;;;;;;;;;5027042;28;20030;-63
2021/05/12 05:19:07;;;;;;;34.72;18.73;;;;;;;;;;5028435;28;20105;-63
2021/05/12 05:21:32;;;;;;;37.28;19.70;;;;;;;;;;5027159;28;20396;-62
2021/05/12 05:23:58;;;;;;;34.80;17.75;;;;;;;;;;5024167;28;20018;-63
2021/05/12 05:26:23;;;;;;;31.38;16.10;;;;;;;;;;5026780;28;20033;-63
2021/05/12 05:28:50;;;;;;;38.72;17.88;;;;;;;;;;5020687;28;20071;-62
2021/05/12 05:31:15;;;;;;;37.97;17.33;;;;;;;;;;5028343;28;20485;-63
2021/05/12 05:33:40;;;;;;;27.67;16.73;;;;;;;;;;5024824;28;20048;-62
2021/05/12 05:36:05;;;;;;;29.83;15.50;;;;;;;;;;5016953;28;20038;-64
2021/05/12 05:38:31;;;;;;;38.03;16.63;;;;;;;;;;5019801;28;20292;-62
2021/05/12 05:40:56;;;;;;;29.13;16.67;;;;;;;;;;5029817;28;20029;-63
2021/05/12 05:43:21;;;;;;;38.50;16.50;;;;;;;;;;5030175;28;20314;-63
2021/05/12 05:45:46;;;;;;;34.35;16.48;;;;;;;;;;5030182;28;20425;-63
2021/05/12 05:48:11;;;;;;;31.77;15.30;;;;;;;;;;5030235;28;20037;-62
2021/05/12 05:50:37;;;;;;;32.30;17.05;;;;;;;;;;5030109;28;20025;-64
2021/05/12 05:53:02;;;;;;;32.72;16.25;;;;;;;;;;5024349;28;20026;-63
2021/05/12 05:55:28;;;;;;;26.03;15.13;;;;;;;;;;5029021;28;20068;-63
2021/05/12 05:57:54;;;;;;;37.10;16.17;;;;;;;;;;5029459;28;20322;-63
2021/05/12 06:00:19;;;;;;;30.70;16.13;;;;;;;;;;5029210;28;20407;-63
2021/05/12 06:02:45;;;;;;;35.17;18.42;;;;;;;;;;5030179;28;20021;-62
2021/05/12 06:05:10;;;;;;;27.65;12.77;;;;;;;;;;5030206;28;20033;-63
2021/05/12 06:07:37;;;;;;;23.77;11.50;;;;;;;;;;5030142;28;20029;-63
2021/05/12 06:10:02;;;;;;;22.38;11.18;;;;;;;;;;5029802;28;20056;-63
2021/05/12 06:12:27;;;;;;;26.60;11.77;;;;;;;;;;5029745;28;20493;-64
2021/05/12 06:14:52;;;;;;;24.38;11.40;;;;;;;;;;5026649;28;20120;-64
2021/05/12 06:17:18;;;;;;;20.55;10.90;;;;;;;;;;5029142;28;20082;-64
2021/05/12 06:19:43;;;;;;;24.80;10.63;;;;;;;;;;5029655;28;20021;-63
2021/05/12 06:22:08;;;;;;;28.07;11.13;;;;;;;;;;5030091;28;20432;-64
2021/05/12 06:24:33;;;;;;;29.92;9.60;;;;;;;;;;5030046;28;20270;-64
2021/05/12 06:26:59;;;;;;;22.55;9.90;;;;;;;;;;5028998;28;20025;-64
2021/05/12 06:29:25;;;;;;;23.83;9.93;;;;;;;;;;5028693;28;20070;-63
2021/05/12 06:31:50;;;;;;;23.57;9.63;;;;;;;;;;5029690;28;20060;-63
2021/05/12 06:34:15;;;;;;;20.05;9.40;;;;;;;;;;5029684;28;20286;-62
2021/05/12 06:36:40;;;;;;;22.38;8.80;;;;;;;;;;5029064;28;20494;-63
2021/05/12 06:39:05;;;;;;;17.23;8.63;;;;;;;;;;5029389;28;20436;-63
2021/05/12 06:41:31;;;;;;;25.83;9.38;;;;;;;;;;5029155;28;20272;-64
2021/05/12 06:43:57;;;;;;;18.15;8.13;;;;;;;;;;5029488;28;20029;-64
2021/05/12 06:46:22;;;;;;;20.88;8.57;;;;;;;;;;5028265;28;20041;-62
2021/05/12 06:48:47;;;;;;;17.85;7.70;;;;;;;;;;5029003;28;20351;-63
2021/05/12 06:51:13;;;;;;;28.48;8.52;;;;;;;;;;5029358;28;20033;-63
2021/05/12 06:53:38;;;;;;;21.50;8.23;;;;;;;;;;5029398;28;20028;-63
2021/05/12 06:56:04;;;;;;;25.88;7.72;;;;;;;;;;5028455;28;20402;-63
2021/05/12 06:58:29;;;;;;;16.58;7.25;;;;;;;;;;5029796;28;20044;-63
2021/05/12 07:00:54;;;;;;;20.88;7.97;;;;;;;;;;5028623;28;20099;-63
2021/05/12 07:03:22;;;;;;;16.63;7.82;;;;;;;;;;5029203;28;20032;-63
2021/05/12 07:05:54;;;;;;;17.40;6.93;;;;;;;;;;5028760;28;20028;-64
2021/05/12 07:08:20;;;;;;;20.92;6.68;;;;;;;;;;5028663;28;20164;-64
2021/05/12 07:10:46;;;;;;;19.70;6.80;;;;;;;;;;5029290;28;20230;-64
2021/05/12 07:13:11;;;;;;;19.33;6.22;;;;;;;;;;5029226;28;20022;-63
2021/05/12 07:15:36;;;;;;;20.63;6.33;;;;;;;;;;5028929;28;20047;-64
2021/05/12 07:18:01;;;;;;;14.50;6.40;;;;;;;;;;5029551;28;20279;-64
2021/05/12 07:20:27;;;;;;;20.48;8.10;;;;;;;;;;5028011;28;20434;-63
2021/05/12 07:22:52;;;;;;;18.60;6.80;;;;;;;;;;5029456;28;20083;-63
2021/05/12 07:25:18;;;;;;;15.50;7.10;;;;;;;;;;5028691;28;20056;-64
2021/05/12 07:27:43;;;;;;;18.83;6.65;;;;;;;;;;5028737;28;20025;-63
2021/05/12 07:30:08;;;;;;;20.95;6.95;;;;;;;;;;5028866;28;20056;-64
2021/05/12 07:32:34;;;;;;;12.27;6.65;;;;;;;;;;5027182;28;20029;-64
2021/05/12 07:34:59;;;;;;;17.45;6.63;;;;;;;;;;5026376;28;20490;-64
2021/05/12 07:37:24;;;;;;;18.15;6.22;;;;;;;;;;5028315;28;20661;-64
2021/05/12 07:39:50;;;;;;;13.20;6.68;;;;;;;;;;5028868;28;20021;-64
2021/05/12 07:42:17;;;;;;;19.40;6.88;;;;;;;;;;5031153;28;20043;-64
2021/05/12 07:44:43;;;;;;;15.82;6.80;;;;;;;;;;5031834;28;20036;-64
2021/05/12 07:47:08;;;;;;;15.07;7.63;;;;;;;;;;5031932;28;20033;-64
2021/05/12 07:49:33;;;;;;;17.98;7.63;;;;;;;;;;5032120;28;20017;-63
2021/05/12 07:51:58;;;;;;;17.57;8.43;;;;;;;;;;5032137;28;20753;-63
2021/05/12 07:54:24;;;;;;;17.23;7.85;;;;;;;;;;5031796;28;20300;-63
2021/05/12 07:56:49;;;;;;;17.50;9.23;;;;;;;;;;5032545;28;20112;-64
2021/05/12 07:59:17;;;;;;;19.13;9.13;;;;;;;;;;5032114;28;20091;-63
2021/05/12 08:01:44;;;;;;;19.17;10.68;;;;;;;;;;5032011;28;20831;-64
2021/05/12 08:04:10;;;;;;;14.48;10.63;;;;;;;;;;5031832;28;20536;-64
2021/05/12 08:06:35;;;;;;;22.75;12.88;;;;;;;;;;5031809;28;20034;-64
2021/05/12 08:09:03;;;;;;;24.90;14.20;;;;;;;;;;5032386;28;20601;-63
2021/05/12 08:11:29;;;;;;;19.58;11.95;;;;;;;;;;5032160;28;20033;-63
2021/05/12 08:13:54;;;;;;;17.95;12.50;;;;;;;;;;5030535;28;20516;-64
2021/05/12 08:16:19;;;;;;;22.35;11.98;;;;;;;;;;5031253;28;20017;-65
2021/05/12 08:18:44;;;;;;;21.83;11.00;;;;;;;;;;5031821;28;20115;-65
2021/05/12 08:21:10;;;;;;;28.45;11.48;;;;;;;;;;5032022;28;20370;-65
2021/05/12 08:23:35;;;;;;;26.40;12.00;;;;;;;;;;5032449;28;20544;-61
2021/05/12 08:26:00;;;;;;;27.98;13.98;;;;;;;;;;5031107;28;20044;-65
2021/05/12 08:28:26;;;;;;;25.25;13.65;;;;;;;;;;5038902;22;20172;-87
2021/05/12 08:30:54;;;;;;;21.85;12.75;;;;;;;;;;5016718;28;20029;-85
2021/05/12 08:33:32;;;;;;;22.98;14.00;;;;;;;;;;4994673;28;20105;-87
2021/05/12 08:35:57;;;;;;;24.85;13.43;;;;;;;;;;5026993;28;20033;-87
2021/05/12 08:38:25;;;;;;;20.90;13.25;;;;;;;;;;5026716;28;20017;-89
2021/05/12 08:40:53;;;;;;;31.15;17.55;;;;;;;;;;5030206;28;20018;-89
2021/05/12 08:46:25;;;;;;;26.38;14.77;;;;;;;;;;5031036;28;20024;-90
2021/05/12 08:52:00;;;;;;;25.05;15.70;;;;;;;;;;5001518;28;20028;-90
2021/05/12 08:54:25;;;;;;;23.98;16.17;;;;;;;;;;5015088;28;20047;-90
2021/05/12 09:00:40;;;;;;;22.85;12.52;;;;;;;;;;4953399;28;20505;-89
2021/05/12 09:03:05;;;;;;;27.52;14.07;;;;;;;;;;5005476;28;20058;-91
2021/05/12 09:05:43;;;;;;;23.88;12.65;;;;;;;;;;5002151;28;20060;-89
2021/05/12 09:08:09;;;;;;;29.70;16.65;;;;;;;;;;5014828;28;20400;-91
2021/05/12 09:10:34;;;;;;;33.28;16.60;;;;;;;;;;5014716;28;20033;-90
2021/05/12 09:13:00;;;;;;;22.42;13.98;;;;;;;;;;5014585;28;20121;-91
2021/05/12 09:15:29;;;;;;;25.60;14.90;;;;;;;;;;5013632;28;20040;-92
2021/05/12 09:18:00;;;;;;;20.08;12.23;;;;;;;;;;5014428;28;20021;-89
2021/05/12 09:20:27;;;;;;;21.45;14.40;;;;;;;;;;5013869;28;20141;-91
2021/05/12 09:23:01;;;;;;;21.23;12.77;;;;;;;;;;5014162;28;20022;-90
2021/05/12 09:25:29;;;;;;;20.77;11.85;;;;;;;;;;5005030;28;20468;-90
2021/05/12 09:28:11;;;;;;;24.55;12.60;;;;;;;;;;5032521;28;20493;-92
2021/05/12 09:30:38;;;;;;;23.75;12.95;;;;;;;;;;5033365;28;20061;-90
2021/05/12 09:33:04;;;;;;;23.40;13.30;;;;;;;;;;5014175;28;20022;-90
2021/05/12 09:35:39;;;;;;;24.23;12.55;;;;;;;;;;5015373;28;20028;-90
2021/05/12 09:38:15;;;;;;;17.80;11.75;;;;;;;;;;5014457;28;20021;-90
2021/05/12 09:40:44;;;;;;;28.08;12.32;;;;;;;;;;5013852;28;20056;-90
2021/05/12 09:43:19;;;;;;;;;;;;;;;;;;;;;
2021/05/12 09:45:45;;;;;;;20.13;11.15;;;;;;;;;;5031099;28;20026;-90
2021/05/12 09:48:11;;;;;;;20.40;12.88;;;;;;;;;;5013662;28;20064;-91
2021/05/12 09:50:37;;;;;;;22.50;10.45;;;;;;;;;;5014097;28;20038;-90
2021/05/12 09:53:14;;;;;;;19.02;10.45;;;;;;;;;;5014663;28;20018;-90
2021/05/12 09:55:40;;;;;;;18.67;10.05;;;;;;;;;;5014225;28;20026;-90
2021/05/12 09:58:09;;;;;;;20.63;9.73;;;;;;;;;;5013610;28;20021;-89
2021/05/12 10:00:36;;;;;;;22.13;12.00;;;;;;;;;;5015228;28;20044;-90
2021/05/12 10:03:04;;;;;;;18.60;10.75;;;;;;;;;;5014726;28;20060;-90
2021/05/12 10:05:48;;;;;;;21.25;10.50;;;;;;;;;;5015573;28;20070;-90
2021/05/12 10:08:18;;;;;;;26.33;11.07;;;;;;;;;;5013921;28;20068;-90
2021/05/12 10:10:44;;;;;;;19.08;9.27;;;;;;;;;;5013791;28;20018;-89
2021/05/12 10:13:09;;;;;;;21.58;10.55;;;;;;;;;;5013883;28;20028;-89
2021/05/12 10:15:35;;;;;;;18.75;11.00;;;;;;;;;;5013985;28;20029;-89
2021/05/12 10:18:01;;;;;;;15.88;7.60;;;;;;;;;;5033641;28;20025;-89
2021/05/12 10:20:26;;;;;;;32.38;9.93;;;;;;;;;;5021618;28;20045;-91
2021/05/12 10:22:53;;;;;;;23.73;10.82;;;;;;;;;;5038961;28;20092;-90
2021/05/12 10:25:18;;;;;;;19.50;10.05;;;;;;;;;;5027461;28;20055;-90
2021/05/12 10:27:47;;;;;;;19.33;9.30;;;;;;;;;;5039591;28;20428;-92
2021/05/12 10:30:14;;;;;;;16.52;8.82;;;;;;;;;;5023640;28;20025;-88
2021/05/12 10:32:43;;;;;;;19.90;7.88;;;;;;;;;;5022718;28;20029;-89
2021/05/12 10:35:13;;;;;;;19.27;8.43;;;;;;;;;;5023509;28;20093;-89
2021/05/12 10:37:41;;;;;;;13.47;8.90;;;;;;;;;;5026728;28;20029;-90
2021/05/12 10:40:14;;;;;;;16.45;8.20;;;;;;;;;;5019656;28;20067;-89
2021/05/12 10:45:32;;;;;;;15.52;7.80;;;;;;;;;;5020424;28;20030;-88
2021/05/12 10:47:57;;;;;;;16.23;7.82;;;;;;;;;;5010885;28;20480;-90
2021/05/12 10:50:42;;;;;;;16.00;7.70;;;;;;;;;;5012079;28;20032;-88
2021/05/12 10:53:13;;;;;;;17.17;8.63;;;;;;;;;;5011896;28;20018;-90
2021/05/12 10:55:57;;;;;;;18.40;6.88;;;;;;;;;;5010547;28;20516;-89
2021/05/12 10:58:23;;;;;;;10.90;6.60;;;;;;;;;;5030417;28;20020;-89
2021/05/12 11:00:56;;;;;;;13.25;6.28;;;;;;;;;;5028649;28;20021;-89
2021/05/12 11:03:25;;;;;;;13.05;7.80;;;;;;;;;;5010890;28;20021;-88
2021/05/12 11:06:06;;;;;;;;;;;;;;;;;;;;;
2021/05/12 11:08:34;;;;;;;12.15;5.05;;;;;;;;;;5027593;28;20018;-89
2021/05/12 11:11:03;;;;;;;9.63;4.47;;;;;;;;;;5010883;28;20512;-91
2021/05/12 11:13:32;;;;;;;14.23;6.05;;;;;;;;;;5027905;28;20036;-88
2021/05/12 11:16:02;;;;;;;16.13;6.30;;;;;;;;;;5011712;28;20032;-89
2021/05/12 11:18:34;;;;;;;17.25;6.00;;;;;;;;;;5031766;28;20033;-85
2021/05/12 11:21:18;;;;;;;10.57;5.13;;;;;;;;;;5014488;28;20033;-86
2021/05/12 11:24:08;;;;;;;6.63;4.05;;;;;;;;;;5014528;28;20452;-89
2021/05/12 11:26:50;;;;;;;13.38;6.13;;;;;;;;;;5002153;28;20048;-88
2021/05/12 11:32:07;;;;;;;16.02;6.85;;;;;;;;;;5031083;28;20043;-89
2021/05/12 11:34:35;;;;;;;17.90;6.13;;;;;;;;;;5013337;28;20025;-89
2021/05/12 11:37:08;;;;;;;11.48;6.50;;;;;;;;;;5025001;23;20088;-66
2021/05/12 11:39:33;;;;;;;11.25;6.82;;;;;;;;;;5012520;28;20128;-66
2021/05/12 11:41:58;;;;;;;12.60;6.90;;;;;;;;;;5020574;28;20546;-66
2021/05/12 11:44:23;;;;;;;18.17;7.53;;;;;;;;;;5021216;28;20257;-66
2021/05/12 11:46:48;;;;;;;8.63;5.68;;;;;;;;;;5010842;28;20025;-66
2021/05/12 11:49:14;;;;;;;13.57;5.70;;;;;;;;;;5012115;28;20033;-66
2021/05/12 11:51:40;;;;;;;12.40;5.25;;;;;;;;;;5036774;23;20319;-83
2021/05/12 11:54:27;;;;;;;16.77;8.20;;;;;;;;;;5013502;28;20478;-83
2021/05/12 11:56:56;;;;;;;12.07;5.90;;;;;;;;;;5010887;28;20044;-83
2021/05/12 11:59:23;;;;;;;13.55;5.82;;;;;;;;;;5011207;28;20427;-83
2021/05/12 12:01:55;;;;;;;12.45;5.93;;;;;;;;;;5012864;28;20056;-83
2021/05/12 12:04:26;;;;;;;13.88;5.97;;;;;;;;;;5030618;28;20428;-83
2021/05/12 12:06:52;;;;;;;12.77;5.53;;;;;;;;;;5030386;28;20029;-83
2021/05/12 12:09:18;;;;;;;14.82;5.13;;;;;;;;;;5012493;28;20029;-81
2021/05/12 12:11:43;;;;;;;12.48;4.85;;;;;;;;;;5026182;28;20389;-82
2021/05/12 12:14:09;;;;;;;8.40;3.63;;;;;;;;;;5025521;28;20037;-81
2021/05/12 12:16:36;;;;;;;11.13;3.88;;;;;;;;;;5020222;28;20017;-84
2021/05/12 12:19:10;;;;;;;31.63;5.28;;;;;;;;;;5013477;28;20209;-84
2021/05/12 12:21:35;;;;;;;14.30;4.82;;;;;;;;;;5013231;28;20504;-82
2021/05/12 12:24:10;;;;;;;15.65;3.95;;;;;;;;;;5012578;28;20029;-83
2021/05/12 12:26:36;;;;;;;10.75;4.05;;;;;;;;;;4999279;28;20120;-82
2021/05/12 12:29:04;;;;;;;4.97;2.90;;;;;;;;;;5011945;28;20503;-83
2021/05/12 12:31:31;;;;;;;8.95;4.03;;;;;;;;;;5012667;28;20056;-82
2021/05/12 12:34:06;;;;;;;8.80;2.53;;;;;;;;;;5010476;28;20017;-82
2021/05/12 12:36:52;;;;;;;8.07;3.03;;;;;;;;;;5029047;28;20029;-84
2021/05/12 12:39:18;;;;;;;7.68;3.72;;;;;;;;;;5006869;28;20033;-84
2021/05/12 12:41:47;;;;;;;4.05;2.25;;;;;;;;;;5030054;28;20500;-82
2021/05/12 12:44:12;;;;;;;8.07;2.72;;;;;;;;;;5028786;28;20389;-82
2021/05/12 12:46:38;;;;;;;8.23;2.47;;;;;;;;;;5009758;28;20021;-83
2021/05/12 12:49:04;;;;;;;5.53;2.28;;;;;;;;;;5029652;28;20487;-83
2021/05/12 12:51:36;;;;;;;8.68;2.70;;;;;;;;;;5011867;28;20113;-83
2021/05/12 12:54:02;;;;;;;9.35;2.20;;;;;;;;;;5012385;28;20025;-83
2021/05/12 12:56:27;;;;;;;6.85;2.33;;;;;;;;;;5029126;28;20048;-84
2021/05/12 12:59:03;;;;;;;6.15;2.58;;;;;;;;;;5012028;28;20060;-83
2021/05/12 13:01:32;;;;;;;14.75;2.35;;;;;;;;;;5006256;28;20022;-84
2021/05/12 13:04:12;;;;;;;4.65;2.15;;;;;;;;;;5014041;28;20025;-83
2021/05/12 13:06:37;;;;;;;6.22;2.00;;;;;;;;;;5012080;28;20025;-82
2021/05/12 13:09:21;;;;;;;9.68;2.10;;;;;;;;;;5010649;28;20029;-83
2021/05/12 13:12:03;;;;;;;3.47;1.75;;;;;;;;;;5028873;28;20033;-84
2021/05/12 13:14:28;;;;;;;4.30;1.83;;;;;;;;;;5010718;28;20029;-83
2021/05/12 13:17:03;;;;;;;5.67;1.60;;;;;;;;;;5026640;28;20018;-82
2021/05/12 13:19:30;;;;;;;2.88;1.65;;;;;;;;;;5029465;28;20275;-83
2021/05/12 13:21:58;;;;;;;3.25;1.15;;;;;;;;;;5011334;28;20022;-82
2021/05/12 13:24:25;;;;;;;7.65;1.83;;;;;;;;;;5029055;28;20026;-83
2021/05/12 13:27:00;;;;;;;4.05;1.50;;;;;;;;;;5027301;28;20017;-83
2021/05/12 13:29:26;;;;;;;5.55;1.88;;;;;;;;;;5008965;28;20370;-83
2021/05/12 13:31:52;;;;;;;3.88;1.55;;;;;;;;;;5009597;28;20473;-83
2021/05/12 13:34:19;;;;;;;6.13;2.35;;;;;;;;;;5026581;28;20028;-83
2021/05/12 13:37:11;;;;;;;4.82;1.88;;;;;;;;;;5008676;28;20116;-82
2021/05/12 13:39:37;;;;;;;7.85;2.25;;;;;;;;;;5009342;28;20033;-81
2021/05/12 13:42:06;;;;;;;5.13;2.63;;;;;;;;;;5011078;28;20022;-83
2021/05/12 13:44:32;;;;;;;7.03;3.05;;;;;;;;;;5027183;28;20014;-82
2021/05/12 13:46:57;;;;;;;7.88;3.53;;;;;;;;;;5027748;28;20251;-83
2021/05/12 13:49:22;;;;;;;13.55;3.67;;;;;;;;;;5010254;28;20125;-82
2021/05/12 13:51:52;;;;;;;10.57;3.20;;;;;;;;;;5028175;28;20083;-82
2021/05/12 13:54:29;;;;;;;10.85;3.20;;;;;;;;;;5009645;28;20026;-83
2021/05/12 13:59:46;;;;;;;6.18;2.90;;;;;;;;;;5027638;28;20083;-83
2021/05/12 14:02:38;;;;;;;6.10;2.50;;;;;;;;;;5010698;28;20366;-83
2021/05/12 14:05:07;;;;;;;10.18;2.45;;;;;;;;;;5028526;28;20520;-82
2021/05/12 14:07:37;;;;;;;4.88;2.38;;;;;;;;;;5026379;28;20421;-82
2021/05/12 14:10:05;;;;;;;7.00;2.13;;;;;;;;;;5010841;28;20018;-83
2021/05/12 14:12:36;;;;;;;7.20;2.72;;;;;;;;;;5010466;28;20564;-83
2021/05/12 14:17:26;;;;;;;6.27;2.40;;;;;;;;;;5026487;28;20115;-83
2021/05/12 14:19:52;;;;;;;4.85;2.40;;;;;;;;;;5009540;28;20256;-83
2021/05/12 14:22:17;;;;;;;5.97;2.90;;;;;;;;;;5028330;28;20017;-83
2021/05/12 14:24:45;;;;;;;9.27;3.07;;;;;;;;;;5028209;28;20025;-82
2021/05/12 14:27:10;;;;;;;7.63;2.97;;;;;;;;;;5008952;28;20276;-82
2021/05/12 14:29:38;;;;;;;7.35;3.10;;;;;;;;;;5028761;28;20067;-83
2021/05/12 14:32:04;;;;;;;7.45;3.00;;;;;;;;;;5026819;28;20438;-83
2021/05/12 14:34:29;;;;;;;4.43;2.28;;;;;;;;;;5010921;28;20053;-83
2021/05/12 14:36:55;;;;;;;8.63;4.15;;;;;;;;;;5026249;28;20031;-83
2021/05/12 14:39:20;;;;;;;10.38;3.40;;;;;;;;;;5010088;28;20025;-84
2021/05/12 14:41:46;;;;;;;7.47;2.80;;;;;;;;;;5009687;28;20017;-83
2021/05/12 14:44:11;;;;;;;8.00;3.10;;;;;;;;;;5009367;28;20057;-82
2021/05/12 14:46:36;;;;;;;8.80;2.40;;;;;;;;;;5008279;28;20029;-83
2021/05/12 14:49:03;;;;;;;10.93;2.85;;;;;;;;;;5028904;28;20108;-83